Time;durP1;ratioP1;P1;durP2;ratioP2;P2;SDS_P1;SDS_P2;PMS_P1;PMS_P2;Temp;Humidity;BMP_temperature;BMP_pressure;BME280_temperature;BME280_humidity;BME280_pressure;Samples;Min_cycle;Max_cycle;Signal;HPM_P1;HPM_P2
2021/10/03 00:01:04;;;;;;;;;49.50;42.00;;;;;;;;2;279079433;279079433;-80
2021/10/03 00:09:47;;;;;;;;;51.00;43.00;;;;;;;;2;234069796;234069796;-80
2021/10/03 00:18:48;;;;;;;;;47.00;41.00;;;;;;;;2;279079462;279079462;-80
2021/10/03 00:27:30;;;;;;;;;54.00;45.50;;;;;;;;2;234068376;234068376;-80
2021/10/03 00:36:31;;;;;;;;;50.00;43.00;;;;;;;;2;279078742;279078742;-80
2021/10/03 00:45:15;;;;;;;;;54.50;45.50;;;;;;;;2;234068177;234068177;-80
2021/10/03 00:54:15;;;;;;;;;52.50;45.00;;;;;;;;2;279084110;279084110;-80
2021/10/03 01:02:59;;;;;;;;;56.50;48.50;;;;;;;;2;234068639;234068639;-80
2021/10/03 01:11:59;;;;;;;;;52.50;44.50;;;;;;;;2;279080971;279080971;-80
2021/10/03 01:20:42;;;;;;;;;50.00;42.50;;;;;;;;2;234067570;234067570;-80
2021/10/03 01:29:43;;;;;;;;;61.50;53.00;;;;;;;;2;279079521;279079521;-79
2021/10/03 01:38:25;;;;;;;;;62.50;53.00;;;;;;;;2;234068101;234068101;-79
2021/10/03 01:47:26;;;;;;;;;56.00;47.00;;;;;;;;2;279080888;279080888;-80
2021/10/03 01:56:10;;;;;;;;;56.50;48.00;;;;;;;;2;234070094;234070094;-80
2021/10/03 02:05:10;;;;;;;;;61.50;54.50;;;;;;;;2;279081784;279081784;-80
2021/10/03 02:13:53;;;;;;;;;52.50;44.50;;;;;;;;2;234068677;234068677;-80
2021/10/03 02:22:53;;;;;;;;;58.00;50.50;;;;;;;;2;279080188;279080188;-80
2021/10/03 02:31:36;;;;;;;;;40.00;35.00;;;;;;;;2;234068490;234068490;-80
2021/10/03 02:40:37;;;;;;;;;47.00;41.50;;;;;;;;2;279080303;279080303;-80
2021/10/03 02:49:20;;;;;;;;;48.00;42.50;;;;;;;;2;234068874;234068874;-80
2021/10/03 02:58:21;;;;;;;;;54.00;47.00;;;;;;;;2;279079914;279079914;-80
2021/10/03 03:07:04;;;;;;;;;38.00;33.00;;;;;;;;2;234068093;234068093;-79
2021/10/03 03:16:04;;;;;;;;;54.00;48.00;;;;;;;;2;279082161;279082161;-79
2021/10/03 03:24:47;;;;;;;;;56.00;50.00;;;;;;;;2;234069096;234069096;-79
2021/10/03 03:33:47;;;;;;;;;61.00;50.50;;;;;;;;2;279082510;279082510;-80
2021/10/03 03:42:30;;;;;;;;;64.00;55.00;;;;;;;;2;234068113;234068113;-80
2021/10/03 03:51:30;;;;;;;;;51.50;45.50;;;;;;;;2;279083060;279083060;-80
2021/10/03 04:00:13;;;;;;;;;53.00;47.00;;;;;;;;2;234067895;234067895;-80
2021/10/03 04:09:13;;;;;;;;;57.00;47.50;;;;;;;;2;279081535;279081535;-80
2021/10/03 04:17:56;;;;;;;;;60.50;54.50;;;;;;;;2;234068566;234068566;-81
2021/10/03 04:26:56;;;;;;;;;61.50;52.00;;;;;;;;2;279083307;279083307;-80
2021/10/03 04:35:39;;;;;;;;;58.50;51.50;;;;;;;;2;234068881;234068881;-81
2021/10/03 04:44:40;;;;;;;;;65.50;55.50;;;;;;;;2;279082022;279082022;-80
2021/10/03 04:53:22;;;;;;;;;67.00;61.50;;;;;;;;2;234069088;234069088;-80
2021/10/03 05:02:23;;;;;;;;;70.00;61.00;;;;;;;;2;279081060;279081060;-80
2021/10/03 05:11:05;;;;;;;;;73.50;67.00;;;;;;;;2;234069364;234069364;-80
2021/10/03 05:20:45;;;;;;;;;;;;;;;;;;;;;
2021/10/03 05:48:45;;;;;;;;;68.00;60.00;;;;;;;;2;234072854;234072854;-83
2021/10/03 05:57:46;;;;;;;;;76.50;73.00;;;;;;;;2;279081611;279081611;-81
2021/10/03 07:47:15;;;;;;;;;76.50;71.50;;;;;;;;2;279079622;279079622;-84
2021/10/03 11:21:00;;;;;;;;;;;;;;;;;;;;;
2021/10/03 11:49:22;;;;;;;;;73.00;67.50;;;;;;;;2;279081043;279081043;-83
2021/10/03 11:58:16;;;;;;;;;78.50;74.00;;;;;;;;2;234069044;234069044;-83
2021/10/03 12:07:16;;;;;;;;;68.00;60.50;;;;;;;;2;279080511;279080511;-84
2021/10/03 12:16:03;;;;;;;;;59.00;51.00;;;;;;;;2;234070230;234070230;-85
2021/10/03 12:25:03;;;;;;;;;65.50;58.00;;;;;;;;2;279083217;279083217;-82
2021/10/03 12:33:46;;;;;;;;;71.50;66.50;;;;;;;;2;234069648;234069648;-83
2021/10/03 12:42:47;;;;;;;;;67.50;57.50;;;;;;;;2;279080522;279080522;-84
2021/10/03 12:51:29;;;;;;;;;68.50;60.00;;;;;;;;2;234069987;234069987;-83
2021/10/03 13:00:33;;;;;;;;;69.00;61.00;;;;;;;;2;279080419;279080419;-86
2021/10/03 13:09:16;;;;;;;;;72.00;66.50;;;;;;;;2;234068457;234068457;-82
2021/10/03 13:18:16;;;;;;;;;63.00;55.50;;;;;;;;2;279081241;279081241;-81
2021/10/03 13:26:59;;;;;;;;;78.00;74.50;;;;;;;;2;234070643;234070643;-81
2021/10/03 13:36:00;;;;;;;;;65.50;62.00;;;;;;;;2;279081713;279081713;-82
2021/10/03 13:44:43;;;;;;;;;63.50;55.50;;;;;;;;2;234069489;234069489;-82
2021/10/03 13:53:43;;;;;;;;;83.50;79.00;;;;;;;;2;279081573;279081573;-82
2021/10/03 14:02:26;;;;;;;;;65.50;57.00;;;;;;;;2;234071164;234071164;-80
2021/10/03 14:11:26;;;;;;;;;55.00;48.50;;;;;;;;2;279079063;279079063;-82
2021/10/03 14:20:09;;;;;;;;;104.50;104.50;;;;;;;;2;234069472;234069472;-79
2021/10/03 14:29:10;;;;;;;;;87.00;87.00;;;;;;;;2;279082918;279082918;-79
2021/10/03 14:37:53;;;;;;;;;76.50;72.00;;;;;;;;2;234072775;234072775;-78
2021/10/03 14:46:53;;;;;;;;;66.50;57.00;;;;;;;;2;279081131;279081131;-80
2021/10/03 14:55:47;;;;;;;;;61.00;53.50;;;;;;;;2;234068752;234068752;-81
2021/10/03 15:05:11;;;;;;;;;88.00;88.00;;;;;;;;2;279083274;279083274;-82
2021/10/03 15:13:56;;;;;;;;;83.50;81.00;;;;;;;;2;234068678;234068678;-81
2021/10/03 15:22:57;;;;;;;;;95.00;95.00;;;;;;;;2;279081072;279081072;-80
2021/10/03 15:31:42;;;;;;;;;67.00;63.50;;;;;;;;2;234069580;234069580;-81
2021/10/03 15:40:45;;;;;;;;;69.00;64.50;;;;;;;;2;279079768;279079768;-81
2021/10/03 15:49:32;;;;;;;;;74.00;68.00;;;;;;;;2;234066954;234066954;-81
2021/10/03 15:58:33;;;;;;;;;80.00;77.00;;;;;;;;2;279082098;279082098;-80
2021/10/03 16:07:16;;;;;;;;;59.00;52.00;;;;;;;;2;234068495;234068495;-79
2021/10/03 16:16:16;;;;;;;;;55.00;48.50;;;;;;;;2;279079864;279079864;-80
2021/10/03 16:24:59;;;;;;;;;72.50;67.50;;;;;;;;2;234069913;234069913;-80
2021/10/03 16:33:59;;;;;;;;;69.50;61.00;;;;;;;;2;279081308;279081308;-80
2021/10/03 16:42:42;;;;;;;;;74.00;66.00;;;;;;;;2;234071301;234071301;-80
2021/10/03 16:51:42;;;;;;;;;71.00;63.00;;;;;;;;2;279082536;279082536;-81
2021/10/03 17:00:25;;;;;;;;;77.50;74.50;;;;;;;;2;234069778;234069778;-78
2021/10/03 17:09:26;;;;;;;;;71.00;62.50;;;;;;;;2;279079599;279079599;-76
2021/10/03 17:18:09;;;;;;;;;70.50;62.00;;;;;;;;2;234068315;234068315;-81
2021/10/03 17:27:10;;;;;;;;;71.00;64.00;;;;;;;;2;279080081;279080081;-82
2021/10/03 17:35:52;;;;;;;;;70.50;62.00;;;;;;;;2;234069710;234069710;-82
2021/10/03 17:44:53;;;;;;;;;91.50;91.50;;;;;;;;2;279083699;279083699;-84
2021/10/03 17:53:36;;;;;;;;;75.50;71.50;;;;;;;;2;234068586;234068586;-83
2021/10/03 18:02:36;;;;;;;;;89.00;87.50;;;;;;;;2;279081970;279081970;-82
2021/10/03 18:11:19;;;;;;;;;92.50;92.50;;;;;;;;2;234069484;234069484;-83
2021/10/03 18:20:20;;;;;;;;;80.00;77.00;;;;;;;;2;279081212;279081212;-83
2021/10/03 18:29:02;;;;;;;;;79.00;75.50;;;;;;;;2;234070634;234070634;-82
2021/10/03 18:38:03;;;;;;;;;89.00;89.00;;;;;;;;2;279082695;279082695;-83
2021/10/03 18:46:45;;;;;;;;;77.00;72.50;;;;;;;;2;234068007;234068007;-82
2021/10/03 18:55:46;;;;;;;;;82.50;78.50;;;;;;;;2;279080769;279080769;-82
2021/10/03 19:04:28;;;;;;;;;68.50;60.00;;;;;;;;2;234069397;234069397;-82
2021/10/03 19:13:40;;;;;;;;;75.50;71.00;;;;;;;;2;279080218;279080218;-83
2021/10/03 19:22:23;;;;;;;;;98.50;98.50;;;;;;;;2;234069565;234069565;-81
2021/10/03 19:31:24;;;;;;;;;73.00;67.50;;;;;;;;2;279081435;279081435;-81
2021/10/03 19:40:06;;;;;;;;;74.50;69.50;;;;;;;;2;234071274;234071274;-82
2021/10/03 19:49:07;;;;;;;;;83.00;80.50;;;;;;;;2;279082058;279082058;-82
2021/10/03 19:57:50;;;;;;;;;88.00;86.00;;;;;;;;2;234066205;234066205;-81
2021/10/03 20:06:50;;;;;;;;;81.00;78.00;;;;;;;;2;279080174;279080174;-79
2021/10/03 20:15:33;;;;;;;;;84.00;82.50;;;;;;;;2;234068759;234068759;-82
2021/10/03 20:24:34;;;;;;;;;78.50;74.00;;;;;;;;2;279084403;279084403;-81
2021/10/03 20:33:16;;;;;;;;;83.50;81.00;;;;;;;;2;234068129;234068129;-81
2021/10/03 20:42:17;;;;;;;;;91.50;91.00;;;;;;;;2;279081838;279081838;-81
2021/10/03 20:51:00;;;;;;;;;89.50;89.50;;;;;;;;2;234067953;234067953;-81
2021/10/03 21:00:03;;;;;;;;;94.50;94.50;;;;;;;;2;279083025;279083025;-83
2021/10/03 21:08:45;;;;;;;;;68.00;61.00;;;;;;;;2;234071068;234071068;-83
2021/10/03 21:17:46;;;;;;;;;95.00;95.00;;;;;;;;2;279078534;279078534;-82
2021/10/03 21:26:29;;;;;;;;;71.00;65.00;;;;;;;;2;234070569;234070569;-82
2021/10/03 21:35:39;;;;;;;;;88.00;85.50;;;;;;;;2;279083852;279083852;-83
2021/10/03 21:44:21;;;;;;;;;;;;;;;;;;2;234068777;234068777;-84
2021/10/03 21:53:22;;;;;;;;;75.00;69.00;;;;;;;;2;279080898;279080898;-85
2021/10/03 22:02:04;;;;;;;;;85.50;81.50;;;;;;;;2;234068343;234068343;-84
2021/10/03 22:11:06;;;;;;;;;72.50;67.00;;;;;;;;2;279081333;279081333;-81
2021/10/03 22:19:48;;;;;;;;;68.50;64.00;;;;;;;;2;234067522;234067522;-82
2021/10/03 22:28:49;;;;;;;;;59.50;55.50;;;;;;;;2;279081439;279081439;-82
2021/10/03 22:37:31;;;;;;;;;79.00;76.00;;;;;;;;2;234069020;234069020;-83
2021/10/03 22:46:32;;;;;;;;;88.50;87.50;;;;;;;;2;279080138;279080138;-85
2021/10/03 22:55:15;;;;;;;;;73.50;68.50;;;;;;;;2;234069520;234069520;-81
2021/10/03 23:04:15;;;;;;;;;73.00;67.00;;;;;;;;2;279081940;279081940;-80
2021/10/03 23:12:58;;;;;;;;;80.50;76.00;;;;;;;;2;234069403;234069403;-81
2021/10/03 23:21:58;;;;;;;;;83.50;81.50;;;;;;;;2;279083627;279083627;-79
2021/10/03 23:30:41;;;;;;;;;77.00;71.50;;;;;;;;2;234069034;234069034;-82
2021/10/03 23:39:41;;;;;;;;;74.00;68.50;;;;;;;;2;279080891;279080891;-82
2021/10/03 23:48:24;;;;;;;;;83.50;82.00;;;;;;;;2;234072128;234072128;-81
2021/10/03 23:57:26;;;;;;;;;83.50;81.00;;;;;;;;2;279083882;279083882;-80
